sensor_id;sensor_type;location;lat;lon;timestamp;pressure;altitude;pressure_sealevel;temperature;humidity
62978;BME280;49073;42.352;23.808;2023-01-29T00:02:13;94688.72;;;-0.67;90.87
62978;BME280;49073;42.352;23.808;2023-01-29T00:05:13;94687.66;;;-0.66;91.39
62978;BME280;49073;42.352;23.808;2023-01-29T00:08:14;94687.44;;;-0.70;91.70
62978;BME280;49073;42.352;23.808;2023-01-29T00:11:16;94695.50;;;-0.66;91.88
62978;BME280;49073;42.352;23.808;2023-01-29T00:14:17;94689.78;;;-0.68;91.23
62978;BME280;49073;42.352;23.808;2023-01-29T00:17:19;94692.38;;;-0.68;91.23
62978;BME280;49073;42.352;23.808;2023-01-29T00:20:19;94693.94;;;-0.67;91.52
62978;BME280;49073;42.352;23.808;2023-01-29T00:23:20;94701.72;;;-0.62;91.60
62978;BME280;49073;42.352;23.808;2023-01-29T00:26:21;94699.63;;;-0.60;91.68
62978;BME280;49073;42.352;23.808;2023-01-29T00:29:22;94705.63;;;-0.60;91.43
62978;BME280;49073;42.352;23.808;2023-01-29T00:32:22;94708.25;;;-0.60;91.28
62978;BME280;49073;42.352;23.808;2023-01-29T00:35:23;94714.25;;;-0.59;91.49
62978;BME280;49073;42.352;23.808;2023-01-29T00:38:24;94717.94;;;-0.60;91.42
62978;BME280;49073;42.352;23.808;2023-01-29T00:41:31;94720.72;;;-0.51;91.18
62978;BME280;49073;42.352;23.808;2023-01-29T00:44:50;94712.88;;;-0.51;90.90
62978;BME280;49073;42.352;23.808;2023-01-29T00:47:56;94710.03;;;-0.55;90.55
62978;BME280;49073;42.352;23.808;2023-01-29T00:50:57;94722.06;;;-0.54;91.09
62978;BME280;49073;42.352;23.808;2023-01-29T00:53:58;94718.41;;;-0.53;91.03
62978;BME280;49073;42.352;23.808;2023-01-29T00:56:59;94717.28;;;-0.47;91.09
62978;BME280;49073;42.352;23.808;2023-01-29T01:00:00;94717.03;;;-0.50;90.99
62978;BME280;49073;42.352;23.808;2023-01-29T01:03:01;94716.84;;;-0.54;91.28
62978;BME280;49073;42.352;23.808;2023-01-29T01:06:06;94717.03;;;-0.50;91.16
62978;BME280;49073;42.352;23.808;2023-01-29T01:09:08;94719.44;;;-0.54;92.01
62978;BME280;49073;42.352;23.808;2023-01-29T01:12:28;94729.44;;;-0.56;92.17
62978;BME280;49073;42.352;23.808;2023-01-29T01:15:38;94719.22;;;-0.57;92.57
62978;BME280;49073;42.352;23.808;2023-01-29T01:18:39;94727.41;;;-0.64;92.96
62978;BME280;49073;42.352;23.808;2023-01-29T01:21:40;94720.63;;;-0.65;93.03
62978;BME280;49073;42.352;23.808;2023-01-29T01:24:44;94725.09;;;-0.66;93.43
62978;BME280;49073;42.352;23.808;2023-01-29T01:27:45;94729.19;;;-0.60;93.79
62978;BME280;49073;42.352;23.808;2023-01-29T01:30:46;94728.19;;;-0.64;93.68
62978;BME280;49073;42.352;23.808;2023-01-29T01:33:46;94730.53;;;-0.62;93.88
62978;BME280;49073;42.352;23.808;2023-01-29T01:36:48;94734.00;;;-0.67;93.48
62978;BME280;49073;42.352;23.808;2023-01-29T01:39:48;94733.94;;;-0.62;93.87
62978;BME280;49073;42.352;23.808;2023-01-29T01:42:55;94738.66;;;-0.64;93.83
62978;BME280;49073;42.352;23.808;2023-01-29T01:45:56;94739.41;;;-0.58;93.08
62978;BME280;49073;42.352;23.808;2023-01-29T01:52:03;94735.16;;;-0.54;92.83
62978;BME280;49073;42.352;23.808;2023-01-29T01:55:06;94737.72;;;-0.49;92.15
62978;BME280;49073;42.352;23.808;2023-01-29T01:58:12;94741.81;;;-0.42;91.57
62978;BME280;49073;42.352;23.808;2023-01-29T02:01:15;94746.25;;;-0.43;91.62
62978;BME280;49073;42.352;23.808;2023-01-29T02:04:20;94746.06;;;-0.47;90.07
62978;BME280;49073;42.352;23.808;2023-01-29T02:07:42;94749.94;;;-0.44;90.05
62978;BME280;49073;42.352;23.808;2023-01-29T02:11:05;94745.94;;;-0.36;90.14
62978;BME280;49073;42.352;23.808;2023-01-29T02:14:06;94742.88;;;-0.43;89.80
62978;BME280;49073;42.352;23.808;2023-01-29T02:17:10;94749.19;;;-0.45;90.24
62978;BME280;49073;42.352;23.808;2023-01-29T02:20:17;94743.16;;;-0.45;89.88
62978;BME280;49073;42.352;23.808;2023-01-29T02:26:57;94754.97;;;-0.48;90.02
62978;BME280;49073;42.352;23.808;2023-01-29T02:30:08;94753.69;;;-0.50;90.56
62978;BME280;49073;42.352;23.808;2023-01-29T02:39:34;94766.34;;;-0.57;91.50
62978;BME280;49073;42.352;23.808;2023-01-29T02:42:49;94765.28;;;-0.56;91.68
62978;BME280;49073;42.352;23.808;2023-01-29T02:49:48;94768.69;;;-0.56;92.44
62978;BME280;49073;42.352;23.808;2023-01-29T02:53:03;94768.69;;;-0.56;92.51
62978;BME280;49073;42.352;23.808;2023-01-29T02:56:14;94769.81;;;-0.43;92.67
62978;BME280;49073;42.352;23.808;2023-01-29T02:59:42;94775.34;;;-0.45;92.40
62978;BME280;49073;42.352;23.808;2023-01-29T03:02:45;94774.00;;;-0.42;92.67
62978;BME280;49073;42.352;23.808;2023-01-29T03:12:04;94774.66;;;-0.31;92.52
62978;BME280;49073;42.352;23.808;2023-01-29T03:15:22;94775.72;;;-0.32;91.84
62978;BME280;49073;42.352;23.808;2023-01-29T03:18:30;94788.53;;;-0.31;92.20
62978;BME280;49073;42.352;23.808;2023-01-29T03:21:34;94781.19;;;-0.28;92.24
62978;BME280;49073;42.352;23.808;2023-01-29T03:24:54;94789.75;;;-0.23;92.01
62978;BME280;49073;42.352;23.808;2023-01-29T03:28:16;94795.00;;;-0.23;92.52
62978;BME280;49073;42.352;23.808;2023-01-29T03:31:36;94797.66;;;-0.28;92.26
62978;BME280;49073;42.352;23.808;2023-01-29T03:34:59;94798.50;;;-0.33;92.49
62978;BME280;49073;42.352;23.808;2023-01-29T03:38:03;94796.66;;;-0.32;92.76
62978;BME280;49073;42.352;23.808;2023-01-29T03:41:08;94800.53;;;-0.24;92.34
62978;BME280;49073;42.352;23.808;2023-01-29T03:44:16;94800.28;;;-0.28;92.48
62978;BME280;49073;42.352;23.808;2023-01-29T03:47:26;94796.94;;;-0.34;92.57
62978;BME280;49073;42.352;23.808;2023-01-29T03:57:37;94796.34;;;-0.50;92.65
62978;BME280;49073;42.352;23.808;2023-01-29T04:00:44;94797.13;;;-0.49;92.99
62978;BME280;49073;42.352;23.808;2023-01-29T04:03:49;94792.94;;;-0.50;93.05
62978;BME280;49073;42.352;23.808;2023-01-29T04:06:55;94797.41;;;-0.51;93.69
62978;BME280;49073;42.352;23.808;2023-01-29T04:10:04;94797.13;;;-0.49;93.27
62978;BME280;49073;42.352;23.808;2023-01-29T04:13:12;94798.13;;;-0.45;93.23
62978;BME280;49073;42.352;23.808;2023-01-29T04:16:22;94801.81;;;-0.46;93.63
62978;BME280;49073;42.352;23.808;2023-01-29T04:19:25;94808.72;;;-0.55;93.36
62978;BME280;49073;42.352;23.808;2023-01-29T04:22:31;94801.91;;;-0.56;93.09
62978;BME280;49073;42.352;23.808;2023-01-29T04:25:41;94798.41;;;-0.47;92.96
62978;BME280;49073;42.352;23.808;2023-01-29T04:29:04;94809.22;;;-0.53;92.71
62978;BME280;49073;42.352;23.808;2023-01-29T04:32:20;94805.53;;;-0.52;93.24
62978;BME280;49073;42.352;23.808;2023-01-29T04:36:13;94808.38;;;-0.49;92.90
62978;BME280;49073;42.352;23.808;2023-01-29T04:40:08;94812.78;;;-0.44;92.89
62978;BME280;49073;42.352;23.808;2023-01-29T04:46:18;94811.88;;;-0.34;92.79
62978;BME280;49073;42.352;23.808;2023-01-29T04:56:02;94822.97;;;-0.42;91.75
62978;BME280;49073;42.352;23.808;2023-01-29T04:59:13;94819.34;;;-0.47;91.81
62978;BME280;49073;42.352;23.808;2023-01-29T05:02:18;94821.75;;;-0.50;92.25
62978;BME280;49073;42.352;23.808;2023-01-29T05:05:21;94825.34;;;-0.46;92.38
62978;BME280;49073;42.352;23.808;2023-01-29T05:08:23;94825.66;;;-0.48;92.35
62978;BME280;49073;42.352;23.808;2023-01-29T05:11:25;94818.56;;;-0.47;91.90
62978;BME280;49073;42.352;23.808;2023-01-29T05:14:27;94830.16;;;-0.53;92.49
62978;BME280;49073;42.352;23.808;2023-01-29T05:17:29;94831.00;;;-0.58;92.74
62978;BME280;49073;42.352;23.808;2023-01-29T05:20:32;94830.47;;;-0.60;93.02
62978;BME280;49073;42.352;23.808;2023-01-29T05:23:34;94835.94;;;-0.56;93.23
62978;BME280;49073;42.352;23.808;2023-01-29T05:26:35;94831.00;;;-0.58;93.08
62978;BME280;49073;42.352;23.808;2023-01-29T05:29:54;94841.97;;;-0.56;93.13
62978;BME280;49073;42.352;23.808;2023-01-29T05:32:56;94837.50;;;-0.55;93.40
62978;BME280;49073;42.352;23.808;2023-01-29T05:35:58;94841.97;;;-0.56;93.45
62978;BME280;49073;42.352;23.808;2023-01-29T05:38:59;94845.13;;;-0.59;93.71
62978;BME280;49073;42.352;23.808;2023-01-29T05:42:01;94846.19;;;-0.60;94.39
62978;BME280;49073;42.352;23.808;2023-01-29T05:45:01;94844.66;;;-0.66;94.44
62978;BME280;49073;42.352;23.808;2023-01-29T05:48:02;94858.25;;;-0.64;95.01
62978;BME280;49073;42.352;23.808;2023-01-29T05:51:04;94860.00;;;-0.54;94.80
62978;BME280;49073;42.352;23.808;2023-01-29T05:54:04;94860.00;;;-0.54;94.96
62978;BME280;49073;42.352;23.808;2023-01-29T05:57:05;94865.78;;;-0.57;95.00
62978;BME280;49073;42.352;23.808;2023-01-29T06:00:07;94862.34;;;-0.53;94.94
62978;BME280;49073;42.352;23.808;2023-01-29T06:03:08;94871.25;;;-0.54;95.52
62978;BME280;49073;42.352;23.808;2023-01-29T06:06:08;94879.13;;;-0.54;95.62
62978;BME280;49073;42.352;23.808;2023-01-29T06:09:10;94877.81;;;-0.56;95.42
62978;BME280;49073;42.352;23.808;2023-01-29T06:12:11;94876.22;;;-0.52;95.60
62978;BME280;49073;42.352;23.808;2023-01-29T06:15:12;94883.28;;;-0.53;95.46
62978;BME280;49073;42.352;23.808;2023-01-29T06:18:14;94886.97;;;-0.54;95.52
62978;BME280;49073;42.352;23.808;2023-01-29T06:21:15;94880.75;;;-0.63;95.38
62978;BME280;49073;42.352;23.808;2023-01-29T06:24:16;94885.78;;;-0.67;94.94
62978;BME280;49073;42.352;23.808;2023-01-29T06:27:16;94893.28;;;-0.60;95.03
62978;BME280;49073;42.352;23.808;2023-01-29T06:30:17;94897.16;;;-0.52;95.05
62978;BME280;49073;42.352;23.808;2023-01-29T06:33:18;94899.75;;;-0.52;94.82
62978;BME280;49073;42.352;23.808;2023-01-29T06:36:19;94903.69;;;-0.50;94.54
62978;BME280;49073;42.352;23.808;2023-01-29T06:39:20;94905.25;;;-0.49;94.33
62978;BME280;49073;42.352;23.808;2023-01-29T06:42:20;94906.91;;;-0.58;93.97
62978;BME280;49073;42.352;23.808;2023-01-29T06:45:26;94907.13;;;-0.54;94.86
62978;BME280;49073;42.352;23.808;2023-01-29T06:48:27;94915.28;;;-0.61;94.99
62978;BME280;49073;42.352;23.808;2023-01-29T06:51:28;94907.91;;;-0.54;95.51
62978;BME280;49073;42.352;23.808;2023-01-29T06:54:28;94921.00;;;-0.54;95.47
62978;BME280;49073;42.352;23.808;2023-01-29T06:57:29;94914.66;;;-0.48;95.93
62978;BME280;49073;42.352;23.808;2023-01-29T07:00:29;94923.81;;;-0.50;96.09
62978;BME280;49073;42.352;23.808;2023-01-29T07:03:30;94919.34;;;-0.45;96.29
62978;BME280;49073;42.352;23.808;2023-01-29T07:06:31;94915.31;;;-0.37;96.04
62978;BME280;49073;42.352;23.808;2023-01-29T07:09:32;94923.41;;;-0.33;95.85
62978;BME280;49073;42.352;23.808;2023-01-29T07:12:32;94915.50;;;-0.28;96.01
62978;BME280;49073;42.352;23.808;2023-01-29T07:15:33;94917.25;;;-0.18;95.88
62978;BME280;49073;42.352;23.808;2023-01-29T07:18:33;94920.88;;;-0.14;95.63
62978;BME280;49073;42.352;23.808;2023-01-29T07:21:34;94914.38;;;-0.22;94.82
62978;BME280;49073;42.352;23.808;2023-01-29T07:24:35;94923.31;;;-0.23;94.43
62978;BME280;49073;42.352;23.808;2023-01-29T07:27:35;94920.13;;;-0.20;93.73
62978;BME280;49073;42.352;23.808;2023-01-29T07:30:36;94921.19;;;-0.21;93.52
62978;BME280;49073;42.352;23.808;2023-01-29T07:33:36;94931.28;;;-0.09;93.67
62978;BME280;49073;42.352;23.808;2023-01-29T07:36:37;94934.41;;;-0.07;93.12
62978;BME280;49073;42.352;23.808;2023-01-29T07:39:38;94932.34;;;-0.10;93.04
62978;BME280;49073;42.352;23.808;2023-01-29T07:42:38;94932.34;;;-0.10;93.18
62978;BME280;49073;42.352;23.808;2023-01-29T07:45:42;94932.63;;;-0.11;93.69
62978;BME280;49073;42.352;23.808;2023-01-29T07:48:42;94931.84;;;-0.12;94.31
62978;BME280;49073;42.352;23.808;2023-01-29T07:51:43;94946.72;;;-0.07;95.43
62978;BME280;49073;42.352;23.808;2023-01-29T07:54:43;94943.09;;;-0.11;96.08
62978;BME280;49073;42.352;23.808;2023-01-29T07:57:44;94952.06;;;-0.18;95.66
62978;BME280;49073;42.352;23.808;2023-01-29T08:00:45;94960.41;;;-0.16;96.27
62978;BME280;49073;42.352;23.808;2023-01-29T08:03:46;94958.03;;;-0.12;97.51
62978;BME280;49073;42.352;23.808;2023-01-29T08:06:46;94960.16;;;-0.14;97.40
62978;BME280;49073;42.352;23.808;2023-01-29T08:09:47;94974.03;;;-0.13;97.89
62978;BME280;49073;42.352;23.808;2023-01-29T08:12:55;94962.53;;;-0.18;98.49
62978;BME280;49073;42.352;23.808;2023-01-29T08:16:00;94969.53;;;-0.08;98.87
62978;BME280;49073;42.352;23.808;2023-01-29T08:19:02;94971.78;;;-0.01;99.62
62978;BME280;49073;42.352;23.808;2023-01-29T08:22:04;94970.72;;;0.05;99.12
62978;BME280;49073;42.352;23.808;2023-01-29T08:25:05;94974.78;;;0.17;98.95
62978;BME280;49073;42.352;23.808;2023-01-29T08:28:06;94971.88;;;0.18;98.40
62978;BME280;49073;42.352;23.808;2023-01-29T08:31:16;94976.53;;;0.21;98.12
62978;BME280;49073;42.352;23.808;2023-01-29T08:34:18;94973.03;;;0.31;98.01
62978;BME280;49073;42.352;23.808;2023-01-29T08:37:19;94975.03;;;0.39;97.50
62978;BME280;49073;42.352;23.808;2023-01-29T08:40:20;94982.69;;;0.36;96.13
62978;BME280;49073;42.352;23.808;2023-01-29T08:43:21;94982.22;;;0.53;96.04
62978;BME280;49073;42.352;23.808;2023-01-29T08:46:21;94985.81;;;0.62;95.36
62978;BME280;49073;42.352;23.808;2023-01-29T08:49:22;94990.13;;;0.72;94.37
62978;BME280;49073;42.352;23.808;2023-01-29T08:52:23;94992.97;;;0.76;93.89
62978;BME280;49073;42.352;23.808;2023-01-29T08:55:24;94994.03;;;0.75;93.43
62978;BME280;49073;42.352;23.808;2023-01-29T08:58:25;94994.22;;;0.78;92.81
62978;BME280;49073;42.352;23.808;2023-01-29T09:01:26;94990.28;;;0.81;92.50
62978;BME280;49073;42.352;23.808;2023-01-29T09:04:26;95003.91;;;0.83;91.41
62978;BME280;49073;42.352;23.808;2023-01-29T09:07:28;94998.56;;;0.88;91.28
62978;BME280;49073;42.352;23.808;2023-01-29T09:10:29;94997.59;;;0.84;90.94
62978;BME280;49073;42.352;23.808;2023-01-29T09:13:29;94993.41;;;0.83;90.53
62978;BME280;49073;42.352;23.808;2023-01-29T09:16:30;95001.34;;;0.97;90.86
62978;BME280;49073;42.352;23.808;2023-01-29T09:19:33;94989.56;;;0.94;89.09
62978;BME280;49073;42.352;23.808;2023-01-29T09:22:34;94988.44;;;1.00;88.15
62978;BME280;49073;42.352;23.808;2023-01-29T09:25:36;94990.41;;;1.09;87.14
62978;BME280;49073;42.352;23.808;2023-01-29T09:28:36;94992.28;;;1.08;86.60
62978;BME280;49073;42.352;23.808;2023-01-29T09:31:37;94990.22;;;1.05;85.80
62978;BME280;49073;42.352;23.808;2023-01-29T09:34:37;94990.00;;;1.01;85.03
62978;BME280;49073;42.352;23.808;2023-01-29T09:37:38;94988.44;;;1.00;84.43
62978;BME280;49073;42.352;23.808;2023-01-29T09:44:02;94976.47;;;1.13;85.15
62978;BME280;49073;42.352;23.808;2023-01-29T09:47:03;94979.28;;;1.17;85.05
62978;BME280;49073;42.352;23.808;2023-01-29T09:56:29;94979.16;;;1.27;85.48
62978;BME280;49073;42.352;23.808;2023-01-29T09:59:30;94972.44;;;1.35;85.10
62978;BME280;49073;42.352;23.808;2023-01-29T10:03:11;94971.69;;;1.35;85.27
62978;BME280;49073;42.352;23.808;2023-01-29T10:13:14;94957.91;;;1.43;85.17
62978;BME280;49073;42.352;23.808;2023-01-29T10:23:15;94944.34;;;1.69;84.44
62978;BME280;49073;42.352;23.808;2023-01-29T10:26:20;94940.47;;;1.80;83.89
62978;BME280;49073;42.352;23.808;2023-01-29T10:29:22;94944.56;;;1.86;82.38
62978;BME280;49073;42.352;23.808;2023-01-29T10:32:25;94942.53;;;1.83;82.85
62978;BME280;49073;42.352;23.808;2023-01-29T10:35:41;94939.09;;;1.83;85.49
62978;BME280;49073;42.352;23.808;2023-01-29T10:38:44;94934.81;;;1.73;85.71
62978;BME280;49073;42.352;23.808;2023-01-29T10:45:12;94932.69;;;1.89;85.08
62978;BME280;49073;42.352;23.808;2023-01-29T10:51:50;94920.25;;;1.95;83.00
62978;BME280;49073;42.352;23.808;2023-01-29T10:55:10;94929.47;;;1.78;82.78
62978;BME280;49073;42.352;23.808;2023-01-29T10:58:29;94916.84;;;1.80;82.25
62978;BME280;49073;42.352;23.808;2023-01-29T11:01:31;94916.91;;;1.89;82.46
62978;BME280;49073;42.352;23.808;2023-01-29T11:04:33;94912.94;;;1.92;82.46
62978;BME280;49073;42.352;23.808;2023-01-29T11:07:34;94914.00;;;1.91;81.90
62978;BME280;49073;42.352;23.808;2023-01-29T11:10:48;94919.13;;;1.68;82.26
62978;BME280;49073;42.352;23.808;2023-01-29T11:14:01;94909.50;;;1.63;83.29
62978;BME280;49073;42.352;23.808;2023-01-29T11:17:16;94900.94;;;1.57;83.52
62978;BME280;49073;42.352;23.808;2023-01-29T11:20:26;94901.69;;;1.44;82.98
62978;BME280;49073;42.352;23.808;2023-01-29T11:23:32;94903.03;;;1.41;83.63
62978;BME280;49073;42.352;23.808;2023-01-29T11:26:35;94898.34;;;1.38;84.08
62978;BME280;49073;42.352;23.808;2023-01-29T11:29:43;94889.59;;;1.29;84.14
62978;BME280;49073;42.352;23.808;2023-01-29T11:32:49;94892.22;;;1.29;84.31
62978;BME280;49073;42.352;23.808;2023-01-29T11:35:51;94891.63;;;1.32;84.84
62978;BME280;49073;42.352;23.808;2023-01-29T11:39:09;94892.34;;;1.38;85.18
62978;BME280;49073;42.352;23.808;2023-01-29T11:42:19;94884.72;;;1.22;84.94
62978;BME280;49073;42.352;23.808;2023-01-29T11:45:26;94887.13;;;1.19;84.96
62978;BME280;49073;42.352;23.808;2023-01-29T11:48:42;94888.47;;;1.16;85.49
62978;BME280;49073;42.352;23.808;2023-01-29T11:51:50;94884.16;;;1.25;85.69
62978;BME280;49073;42.352;23.808;2023-01-29T11:55:00;94879.38;;;1.27;85.62
62978;BME280;49073;42.352;23.808;2023-01-29T11:58:17;94874.13;;;1.27;85.36
62978;BME280;49073;42.352;23.808;2023-01-29T12:01:46;94870.94;;;1.30;84.43
62978;BME280;49073;42.352;23.808;2023-01-29T12:04:47;94875.78;;;1.37;84.64
62978;BME280;49073;42.352;23.808;2023-01-29T12:07:53;94875.63;;;1.48;84.77
62978;BME280;49073;42.352;23.808;2023-01-29T12:11:11;94866.88;;;1.52;85.02
62978;BME280;49073;42.352;23.808;2023-01-29T12:14:26;94859.31;;;1.51;84.52
62978;BME280;49073;42.352;23.808;2023-01-29T12:17:30;94854.34;;;1.49;83.89
62978;BME280;49073;42.352;23.808;2023-01-29T12:20:39;94868.53;;;1.48;83.42
62978;BME280;49073;42.352;23.808;2023-01-29T12:30:52;94857.53;;;1.74;82.26
62978;BME280;49073;42.352;23.808;2023-01-29T12:34:05;94850.72;;;1.73;81.80
62978;BME280;49073;42.352;23.808;2023-01-29T12:37:12;94856.47;;;1.75;81.60
62978;BME280;49073;42.352;23.808;2023-01-29T12:40:16;94853.66;;;1.71;81.32
62978;BME280;49073;42.352;23.808;2023-01-29T12:43:22;94848.81;;;1.79;82.73
62978;BME280;49073;42.352;23.808;2023-01-29T12:46:39;94847.53;;;1.76;81.62
62978;BME280;49073;42.352;23.808;2023-01-29T12:49:47;94849.19;;;1.72;81.88
62978;BME280;49073;42.352;23.808;2023-01-29T12:52:56;94852.97;;;1.66;82.06
62978;BME280;49073;42.352;23.808;2023-01-29T13:05:59;94865.41;;;1.46;83.27
62978;BME280;49073;42.352;23.808;2023-01-29T13:09:03;94858.31;;;1.47;83.62
62978;BME280;49073;42.352;23.808;2023-01-29T13:12:11;94857.53;;;1.46;83.39
62978;BME280;49073;42.352;23.808;2023-01-29T13:15:23;94862.41;;;1.53;83.17
62978;BME280;49073;42.352;23.808;2023-01-29T13:18:43;94872.34;;;1.56;83.78
62978;BME280;49073;42.352;23.808;2023-01-29T13:21:46;94875.59;;;1.34;81.75
62978;BME280;49073;42.352;23.808;2023-01-29T13:24:47;94867.56;;;1.44;83.15
62978;BME280;49073;42.352;23.808;2023-01-29T13:27:49;94876.19;;;1.44;83.08
62978;BME280;49073;42.352;23.808;2023-01-29T13:34:22;94870.56;;;1.51;82.95
62978;BME280;49073;42.352;23.808;2023-01-29T13:37:32;94872.50;;;1.45;83.02
62978;BME280;49073;42.352;23.808;2023-01-29T13:40:33;94870.66;;;1.46;83.87
62978;BME280;49073;42.352;23.808;2023-01-29T13:43:37;94872.59;;;1.40;83.30
62978;BME280;49073;42.352;23.808;2023-01-29T13:46:39;94877.34;;;1.38;82.81
62978;BME280;49073;42.352;23.808;2023-01-29T13:49:46;94876.19;;;1.30;83.29
62978;BME280;49073;42.352;23.808;2023-01-29T13:52:57;94879.66;;;1.26;83.67
62978;BME280;49073;42.352;23.808;2023-01-29T13:56:34;94886.69;;;1.30;85.92
62978;BME280;49073;42.352;23.808;2023-01-29T13:59:52;94887.19;;;1.33;86.03
62978;BME280;49073;42.352;23.808;2023-01-29T14:05:59;94886.25;;;1.09;86.55
62978;BME280;49073;42.352;23.808;2023-01-29T14:09:00;94879.09;;;0.96;87.08
62978;BME280;49073;42.352;23.808;2023-01-29T14:12:01;94885.75;;;0.88;87.27
62978;BME280;49073;42.352;23.808;2023-01-29T14:15:15;94890.75;;;0.90;87.31
62978;BME280;49073;42.352;23.808;2023-01-29T14:18:21;94882.72;;;0.81;88.16
62978;BME280;49073;42.352;23.808;2023-01-29T14:21:31;94884.38;;;0.77;88.45
62978;BME280;49073;42.352;23.808;2023-01-29T14:24:33;94888.31;;;0.74;88.89
62978;BME280;49073;42.352;23.808;2023-01-29T14:27:34;94892.31;;;0.71;89.05
62978;BME280;49073;42.352;23.808;2023-01-29T14:30:36;94885.28;;;0.67;88.98
62978;BME280;49073;42.352;23.808;2023-01-29T14:33:39;94891.16;;;0.58;88.75
62978;BME280;49073;42.352;23.808;2023-01-29T14:36:42;94898.25;;;0.58;88.52
62978;BME280;49073;42.352;23.808;2023-01-29T14:39:51;94909.31;;;0.55;88.58
62978;BME280;49073;42.352;23.808;2023-01-29T14:53:15;94913.41;;;0.42;88.21
62978;BME280;49073;42.352;23.808;2023-01-29T14:56:36;94915.03;;;0.38;88.33
62978;BME280;49073;42.352;23.808;2023-01-29T14:59:51;94919.00;;;0.35;88.35
62978;BME280;49073;42.352;23.808;2023-01-29T15:02:53;94922.41;;;0.36;87.77
62978;BME280;49073;42.352;23.808;2023-01-29T15:05:56;94919.56;;;0.32;87.23
62978;BME280;49073;42.352;23.808;2023-01-29T15:09:09;94927.00;;;0.25;87.38
62978;BME280;49073;42.352;23.808;2023-01-29T15:12:30;94930.03;;;0.32;86.61
62978;BME280;49073;42.352;23.808;2023-01-29T15:15:36;94934.16;;;0.38;85.99
62978;BME280;49073;42.352;23.808;2023-01-29T15:18:41;94928.84;;;0.43;86.43
62978;BME280;49073;42.352;23.808;2023-01-29T15:22:05;94935.66;;;0.45;84.38
62978;BME280;49073;42.352;23.808;2023-01-29T15:25:12;94939.06;;;0.45;84.21
62978;BME280;49073;42.352;23.808;2023-01-29T15:28:14;94936.88;;;0.52;83.89
62978;BME280;49073;42.352;23.808;2023-01-29T15:31:17;94931.13;;;0.50;83.29
62978;BME280;49073;42.352;23.808;2023-01-29T15:34:17;94923.91;;;0.42;83.37
62978;BME280;49073;42.352;23.808;2023-01-29T15:37:29;94925.47;;;0.43;83.91
62978;BME280;49073;42.352;23.808;2023-01-29T15:40:31;94931.59;;;0.33;83.33
62978;BME280;49073;42.352;23.808;2023-01-29T15:43:41;94943.66;;;0.34;83.79
62978;BME280;49073;42.352;23.808;2023-01-29T15:46:54;94939.25;;;0.30;84.33
62978;BME280;49073;42.352;23.808;2023-01-29T15:49:56;94948.13;;;0.34;85.53
62978;BME280;49073;42.352;23.808;2023-01-29T15:53:00;94945.50;;;0.34;85.63
62978;BME280;49073;42.352;23.808;2023-01-29T15:56:07;94945.09;;;0.21;85.97
62978;BME280;49073;42.352;23.808;2023-01-29T15:59:16;94945.16;;;0.16;87.08
62978;BME280;49073;42.352;23.808;2023-01-29T16:02:38;94946.28;;;0.10;87.34
62978;BME280;49073;42.352;23.808;2023-01-29T16:05:39;94951.38;;;0.01;87.14
62978;BME280;49073;42.352;23.808;2023-01-29T16:08:48;94953.81;;;-0.08;88.12
62978;BME280;49073;42.352;23.808;2023-01-29T16:11:52;94945.25;;;-0.19;88.84
62978;BME280;49073;42.352;23.808;2023-01-29T16:14:54;94944.16;;;-0.12;88.80
62978;BME280;49073;42.352;23.808;2023-01-29T16:17:58;94957.69;;;-0.05;88.74
62978;BME280;49073;42.352;23.808;2023-01-29T16:21:23;94951.19;;;-0.08;88.01
62978;BME280;49073;42.352;23.808;2023-01-29T16:24:23;94949.50;;;-0.23;89.15
62978;BME280;49073;42.352;23.808;2023-01-29T16:27:24;94963.59;;;-0.19;88.58
62978;BME280;49073;42.352;23.808;2023-01-29T16:30:26;94959.88;;;-0.12;88.96
62978;BME280;49073;42.352;23.808;2023-01-29T16:33:34;94951.88;;;0.03;88.40
62978;BME280;49073;42.352;23.808;2023-01-29T16:36:36;94965.09;;;-0.12;89.15
62978;BME280;49073;42.352;23.808;2023-01-29T16:39:45;94960.09;;;-0.09;88.42
62978;BME280;49073;42.352;23.808;2023-01-29T16:42:46;94969.72;;;0.01;87.57
62978;BME280;49073;42.352;23.808;2023-01-29T16:52:32;94982.13;;;-0.10;86.32
62978;BME280;49073;42.352;23.808;2023-01-29T16:55:41;94978.75;;;-0.16;85.62
62978;BME280;49073;42.352;23.808;2023-01-29T16:58:48;94979.25;;;-0.13;85.31
62978;BME280;49073;42.352;23.808;2023-01-29T17:01:50;94971.44;;;-0.19;84.93
62978;BME280;49073;42.352;23.808;2023-01-29T17:04:52;94979.25;;;-0.13;85.03
62978;BME280;49073;42.352;23.808;2023-01-29T17:07:57;94975.38;;;-0.16;85.68
62978;BME280;49073;42.352;23.808;2023-01-29T17:10:59;94972.34;;;-0.04;86.03
62978;BME280;49073;42.352;23.808;2023-01-29T17:14:00;94961.44;;;-0.11;86.24
62978;BME280;49073;42.352;23.808;2023-01-29T17:17:04;94973.88;;;0.02;86.45
62978;BME280;49073;42.352;23.808;2023-01-29T17:20:12;94974.41;;;-0.01;86.83
62978;BME280;49073;42.352;23.808;2023-01-29T17:23:16;94973.72;;;-0.07;86.75
62978;BME280;49073;42.352;23.808;2023-01-29T17:26:16;94970.28;;;-0.07;87.27
62978;BME280;49073;42.352;23.808;2023-01-29T17:29:19;94976.28;;;-0.02;87.28
62978;BME280;49073;42.352;23.808;2023-01-29T17:32:23;94973.59;;;0.04;86.93
62978;BME280;49073;42.352;23.808;2023-01-29T17:35:24;94978.19;;;-0.12;88.04
62978;BME280;49073;42.352;23.808;2023-01-29T17:38:25;94978.06;;;0.03;87.28
62978;BME280;49073;42.352;23.808;2023-01-29T17:41:28;94968.19;;;-0.05;87.87
62978;BME280;49073;42.352;23.808;2023-01-29T17:44:30;94967.88;;;-0.28;88.63
62978;BME280;49073;42.352;23.808;2023-01-29T17:47:31;94964.31;;;-0.37;89.68
62978;BME280;49073;42.352;23.808;2023-01-29T17:50:33;94960.16;;;-0.43;89.60
62978;BME280;49073;42.352;23.808;2023-01-29T17:53:34;94966.06;;;-0.27;90.03
62978;BME280;49073;42.352;23.808;2023-01-29T17:56:35;94957.75;;;-0.10;89.03
62978;BME280;49073;42.352;23.808;2023-01-29T17:59:36;94964.00;;;-0.06;88.35
62978;BME280;49073;42.352;23.808;2023-01-29T18:02:36;94968.06;;;-0.19;88.25
62978;BME280;49073;42.352;23.808;2023-01-29T18:05:37;94967.63;;;-0.32;87.92
62978;BME280;49073;42.352;23.808;2023-01-29T18:08:41;94969.03;;;-0.39;88.50